createdAt,value
2022-11-24T00:01:15.857Z,5.80
2022-11-24T00:03:43.395Z,7.30
2022-11-24T00:06:11.413Z,5.80
2022-11-24T00:08:39.112Z,5.80
2022-11-24T00:11:07.169Z,6.00
2022-11-24T00:13:34.331Z,5.90
2022-11-24T00:16:05.377Z,5.90
2022-11-24T00:18:32.265Z,5.90
2022-11-24T00:20:59.213Z,5.80
2022-11-24T00:23:26.878Z,5.90
2022-11-24T00:25:53.761Z,5.90
2022-11-24T00:28:20.635Z,5.80
2022-11-24T00:30:47.535Z,6.00
2022-11-24T00:33:14.515Z,6.40
2022-11-24T00:35:41.361Z,5.90
2022-11-24T00:38:08.229Z,7.00
2022-11-24T00:40:35.328Z,6.00
2022-11-24T00:43:02.228Z,6.40
2022-11-24T00:45:29.095Z,6.30
2022-11-24T00:47:55.924Z,5.90
2022-11-24T00:50:23.152Z,6.10
2022-11-24T00:52:50.035Z,6.00
2022-11-24T00:55:16.874Z,6.00
2022-11-24T00:57:43.721Z,6.00
2022-11-24T01:00:10.681Z,6.60
2022-11-24T01:02:37.567Z,6.00
2022-11-24T01:05:04.581Z,7.00
2022-11-24T01:07:31.973Z,6.10
2022-11-24T01:09:58.993Z,6.80
2022-11-24T01:12:25.888Z,6.50
2022-11-24T01:14:52.710Z,6.40
2022-11-24T01:17:19.580Z,6.10
2022-11-24T01:19:47.400Z,6.10
2022-11-24T01:22:14.244Z,6.30
2022-11-24T01:24:41.378Z,6.20
2022-11-24T01:27:08.275Z,6.20
2022-11-24T01:29:35.210Z,6.30
2022-11-24T01:32:02.045Z,6.20
2022-11-24T01:34:28.940Z,6.20
2022-11-24T01:36:55.805Z,6.40
2022-11-24T01:39:22.667Z,6.20
2022-11-24T01:41:49.518Z,6.30
2022-11-24T01:44:26.386Z,6.90
2022-11-24T01:46:55.754Z,6.40
2022-11-24T01:49:27.016Z,6.20
2022-11-24T01:51:57.154Z,6.30
2022-11-24T01:54:29.782Z,6.20
2022-11-24T01:56:59.879Z,6.20
2022-11-24T01:59:26.763Z,6.20
2022-11-24T02:01:54.784Z,4.00
2022-11-24T02:04:24.162Z,6.10
2022-11-24T02:06:51.861Z,6.10
2022-11-24T02:09:28.363Z,6.70
2022-11-24T02:11:56.009Z,6.10
2022-11-24T02:14:23.693Z,6.00
2022-11-24T02:16:51.319Z,6.10
2022-11-24T02:19:22.580Z,6.00
2022-11-24T02:21:49.434Z,6.10
2022-11-24T02:24:16.267Z,7.10
2022-11-24T02:26:44.249Z,6.00
2022-11-24T02:29:11.822Z,6.80
2022-11-24T02:31:43.525Z,6.00
2022-11-24T02:34:10.426Z,6.80
2022-11-24T02:36:37.343Z,6.00
2022-11-24T02:39:06.084Z,5.80
2022-11-24T02:41:32.950Z,6.00
2022-11-24T02:44:00.724Z,6.00
2022-11-24T02:46:27.694Z,6.00
2022-11-24T02:48:54.772Z,5.90
2022-11-24T02:51:21.772Z,6.10
2022-11-24T02:53:48.598Z,7.10
2022-11-24T02:56:15.506Z,6.00
2022-11-24T02:58:42.433Z,5.90
2022-11-24T03:01:09.338Z,6.00
2022-11-24T03:07:36.279Z,5.80
2022-11-24T03:10:03.738Z,6.10
2022-11-24T03:12:30.671Z,5.70
2022-11-24T03:14:57.509Z,5.70
2022-11-24T03:17:24.315Z,5.60
2022-11-24T03:19:51.158Z,5.80
2022-11-24T03:22:17.955Z,6.70
2022-11-24T03:24:44.831Z,5.70
2022-11-24T03:27:11.901Z,5.60
2022-11-24T03:29:38.826Z,5.70
2022-11-24T03:32:05.734Z,7.40
2022-11-24T03:34:32.949Z,5.60
2022-11-24T03:37:00.046Z,6.90
2022-11-24T03:39:26.870Z,5.90
2022-11-24T03:41:53.936Z,6.90
2022-11-24T03:44:20.848Z,5.60
2022-11-24T03:46:47.711Z,5.50
2022-11-24T03:49:14.653Z,5.60
2022-11-24T03:51:41.499Z,5.50
2022-11-24T03:54:08.405Z,5.60
2022-11-24T03:56:35.302Z,5.50
2022-11-24T03:59:02.239Z,5.50
2022-11-24T04:01:29.152Z,5.40
2022-11-24T04:03:56.034Z,5.50
2022-11-24T04:06:22.882Z,5.40
2022-11-24T04:08:49.747Z,5.70
2022-11-24T04:11:35.432Z,5.30
2022-11-24T04:14:02.288Z,5.70
2022-11-24T04:16:29.155Z,7.30
2022-11-24T04:18:56.001Z,5.40
2022-11-24T04:21:22.870Z,7.10
2022-11-24T04:23:49.710Z,5.70
2022-11-24T04:26:16.549Z,5.30
2022-11-24T04:28:43.540Z,5.40
2022-11-24T04:31:10.416Z,5.30
2022-11-24T04:33:37.311Z,5.40
2022-11-24T04:36:04.265Z,7.60
2022-11-24T04:39:25.004Z,5.70
2022-11-24T04:41:17.930Z,7.40
2022-11-24T04:43:44.777Z,5.30
2022-11-24T04:46:11.734Z,5.30
2022-11-24T04:48:38.754Z,5.10
2022-11-24T04:51:06.033Z,7.50
2022-11-24T04:53:32.878Z,5.40
2022-11-24T04:55:59.703Z,7.70
2022-11-24T04:58:26.586Z,5.10
2022-11-24T05:00:53.385Z,5.00
2022-11-24T05:03:20.300Z,5.40
2022-11-24T05:05:47.141Z,5.00
2022-11-24T05:08:13.979Z,5.00
2022-11-24T05:10:40.880Z,7.50
2022-11-24T05:13:09.673Z,5.00
2022-11-24T05:15:40.640Z,7.00
2022-11-24T05:18:08.300Z,5.20
2022-11-24T05:20:35.616Z,6.80
2022-11-24T05:23:03.140Z,4.90
2022-11-24T05:25:30.013Z,5.40
2022-11-24T05:28:04.941Z,5.00
2022-11-24T05:30:32.249Z,4.90
2022-11-24T05:32:59.119Z,4.90
2022-11-24T05:35:26.031Z,7.50
2022-11-24T05:37:52.927Z,5.40
2022-11-24T05:40:19.871Z,5.00
2022-11-24T05:42:48.248Z,5.00
2022-11-24T05:45:19.541Z,5.10
2022-11-24T05:47:46.632Z,5.10
2022-11-24T05:50:14.758Z,5.10
2022-11-24T05:52:41.743Z,5.10
2022-11-24T05:55:08.958Z,5.30
2022-11-24T05:57:35.826Z,5.20
2022-11-24T06:00:04.306Z,5.30
2022-11-24T06:02:39.505Z,5.20
2022-11-24T06:05:06.688Z,5.60
2022-11-24T06:07:33.544Z,5.20
2022-11-24T06:10:00.367Z,5.30
2022-11-24T06:12:27.167Z,5.20
2022-11-24T06:14:53.982Z,5.40
2022-11-24T06:17:20.747Z,7.10
2022-11-24T06:19:50.208Z,5.40
2022-11-24T06:22:19.036Z,5.20
2022-11-24T06:24:46.443Z,5.20
2022-11-24T06:27:13.664Z,5.20
2022-11-24T06:29:40.490Z,5.30
2022-11-24T06:32:07.420Z,5.30
2022-11-24T06:34:34.604Z,6.80
2022-11-24T06:37:01.729Z,5.20
2022-11-24T06:39:28.617Z,5.20
2022-11-24T06:41:55.485Z,5.60
2022-11-24T06:44:22.782Z,5.20
2022-11-24T06:46:49.639Z,5.30
2022-11-24T06:49:16.488Z,5.20
2022-11-24T06:51:43.389Z,5.30
2022-11-24T06:54:10.852Z,7.10
2022-11-24T06:56:37.712Z,5.50
2022-11-24T06:59:04.580Z,5.30
2022-11-24T07:01:32.403Z,5.50
2022-11-24T07:03:59.380Z,7.00
2022-11-24T07:06:26.500Z,5.50
2022-11-24T07:08:53.436Z,5.40
2022-11-24T07:11:21.705Z,2.20
2022-11-24T07:13:48.954Z,5.40
2022-11-24T07:16:25.693Z,5.40
2022-11-24T07:18:53.313Z,5.40
2022-11-24T07:21:20.986Z,5.50
2022-11-24T07:23:48.373Z,7.70
2022-11-24T07:26:15.179Z,5.50
2022-11-24T07:28:41.976Z,5.70
2022-11-24T07:31:09.640Z,5.50
2022-11-24T07:33:36.842Z,8.00
2022-11-24T07:36:04.602Z,5.50
2022-11-24T07:38:31.928Z,5.50
2022-11-24T07:41:02.344Z,5.60
2022-11-24T07:43:30.721Z,5.50
2022-11-24T07:45:58.652Z,5.80
2022-11-24T07:48:25.559Z,6.70
2022-11-24T07:50:55.708Z,5.50
2022-11-24T07:53:23.234Z,5.50
2022-11-24T07:55:56.916Z,5.60
2022-11-24T07:58:26.476Z,5.50
2022-11-24T08:00:54.620Z,2.50
2022-11-24T08:03:21.999Z,5.50
2022-11-24T08:06:22.194Z,5.60
2022-11-24T08:08:42.763Z,5.50
2022-11-24T08:11:12.268Z,5.50
2022-11-24T08:13:39.279Z,6.70
2022-11-24T08:16:07.176Z,5.80
2022-11-24T08:18:34.800Z,5.50
2022-11-24T08:21:01.833Z,5.50
2022-11-24T08:23:29.143Z,7.90
2022-11-24T08:25:57.172Z,5.60
2022-11-24T08:28:24.289Z,7.40
2022-11-24T08:30:51.354Z,5.60
2022-11-24T08:33:18.270Z,5.50
2022-11-24T08:35:45.145Z,5.70
2022-11-24T08:38:12.009Z,5.60
2022-11-24T08:40:38.880Z,5.90
2022-11-24T08:43:05.770Z,5.60
2022-11-24T08:45:35.475Z,5.60
2022-11-24T08:48:06.649Z,5.60
2022-11-24T08:50:35.674Z,5.60
2022-11-24T08:53:02.555Z,5.60
2022-11-24T08:55:29.395Z,5.80
2022-11-24T08:57:56.194Z,7.40
2022-11-24T09:00:23.872Z,5.60
2022-11-24T09:02:54.639Z,5.60
2022-11-24T09:05:50.226Z,5.60
2022-11-24T09:08:08.423Z,6.30
2022-11-24T09:10:35.574Z,6.10
2022-11-24T09:13:02.565Z,5.70
2022-11-24T09:15:29.419Z,5.60
2022-11-24T09:17:57.380Z,5.90
2022-11-24T09:20:24.275Z,5.80
2022-11-24T09:22:51.133Z,6.40
2022-11-24T09:25:18.079Z,5.80
2022-11-24T09:28:30.283Z,5.80
2022-11-24T09:31:00.585Z,5.90
2022-11-24T09:33:27.574Z,3.00
2022-11-24T09:35:54.427Z,5.90
2022-11-24T09:38:21.299Z,6.40
2022-11-24T09:40:48.332Z,5.80
2022-11-24T09:43:18.288Z,6.30
2022-11-24T09:46:08.989Z,6.00
2022-11-24T09:48:41.496Z,6.20
2022-11-24T09:51:11.705Z,6.20
2022-11-24T09:53:42.258Z,6.30
2022-11-24T09:56:22.996Z,6.30
2022-11-24T09:58:52.841Z,6.30
2022-11-24T10:01:19.749Z,6.30
2022-11-24T10:03:48.770Z,6.50
2022-11-24T10:06:26.886Z,6.20
2022-11-24T10:09:12.530Z,6.80
2022-11-24T10:11:57.927Z,6.10
2022-11-24T10:14:30.782Z,6.20
2022-11-24T10:17:02.136Z,6.10
2022-11-24T10:19:36.416Z,6.30
2022-11-24T10:22:37.040Z,6.20
2022-11-24T10:25:39.557Z,3.20
2022-11-24T10:28:10.242Z,6.30
2022-11-24T10:30:37.529Z,6.60
2022-11-24T10:33:10.566Z,6.40
2022-11-24T10:35:45.540Z,7.10
2022-11-24T10:38:21.793Z,6.60
2022-11-24T10:40:58.229Z,6.70
2022-11-24T10:43:26.478Z,6.60
2022-11-24T10:45:53.637Z,5.50
2022-11-24T10:48:25.867Z,6.60
2022-11-24T10:50:54.463Z,7.10
2022-11-24T10:53:23.364Z,7.00
2022-11-24T10:55:56.292Z,7.40
2022-11-24T10:58:24.261Z,7.10
2022-11-24T11:00:51.124Z,7.20
2022-11-24T11:03:18.065Z,7.10
2022-11-24T11:05:48.434Z,7.50
2022-11-24T11:08:21.117Z,7.00
2022-11-24T11:10:49.921Z,7.10
2022-11-24T11:13:27.983Z,6.90
2022-11-24T11:15:55.653Z,7.00
2022-11-24T11:18:25.415Z,6.90
2022-11-24T11:20:53.707Z,6.90
2022-11-24T11:23:22.783Z,7.00
2022-11-24T11:25:49.688Z,7.20
2022-11-24T11:28:19.952Z,7.10
2022-11-24T11:31:22.147Z,7.30
2022-11-24T11:34:06.194Z,7.30
2022-11-24T11:36:46.708Z,7.50
2022-11-24T11:39:23.468Z,7.40
2022-11-24T11:41:53.140Z,7.40
2022-11-24T11:44:31.028Z,7.40
2022-11-24T11:46:59.112Z,7.60
2022-11-24T11:49:26.423Z,7.40
2022-11-24T11:51:53.461Z,7.60
2022-11-24T11:54:46.682Z,7.40
2022-11-24T11:57:16.645Z,7.70
2022-11-24T11:59:51.159Z,7.30
2022-11-24T12:06:15.389Z,7.30
2022-11-24T12:09:11.490Z,7.10
2022-11-24T12:11:35.356Z,7.10
2022-11-24T12:14:05.335Z,7.30
2022-11-24T12:16:54.417Z,7.30
2022-11-24T12:19:27.347Z,7.20
2022-11-24T12:22:07.471Z,7.30
2022-11-24T12:24:34.373Z,7.20
2022-11-24T12:27:04.617Z,7.30
2022-11-24T12:29:47.101Z,7.30
2022-11-24T12:32:32.208Z,7.70
2022-11-24T12:35:14.456Z,7.10
2022-11-24T12:37:59.943Z,7.30
2022-11-24T12:40:30.471Z,7.30
2022-11-24T12:43:03.429Z,7.40
2022-11-24T12:45:40.550Z,7.30
2022-11-24T12:48:18.688Z,7.20
2022-11-24T12:50:46.071Z,7.40
2022-11-24T12:53:16.896Z,7.30
2022-11-24T12:55:46.977Z,7.40
2022-11-24T12:58:37.268Z,7.30
2022-11-24T13:05:21.276Z,7.20
2022-11-24T13:07:57.992Z,7.20
2022-11-24T13:10:46.953Z,7.30
2022-11-24T13:13:13.378Z,7.20
2022-11-24T13:16:07.163Z,7.40
2022-11-24T13:18:47.902Z,7.40
2022-11-24T13:21:33.612Z,7.50
2022-11-24T13:24:05.083Z,7.50
2022-11-24T13:26:44.745Z,7.90
2022-11-24T13:29:33.126Z,7.60
2022-11-24T13:32:03.090Z,8.00
2022-11-24T13:34:39.293Z,7.50
2022-11-24T13:37:31.746Z,7.60
2022-11-24T13:40:11.783Z,7.50
2022-11-24T13:43:03.182Z,7.60
2022-11-24T13:45:39.347Z,7.50
2022-11-24T13:48:22.554Z,7.60
2022-11-24T13:50:49.568Z,7.40
2022-11-24T13:53:16.584Z,7.40
2022-11-24T13:56:20.767Z,7.40
2022-11-24T14:02:47.437Z,7.40
2022-11-24T14:05:15.432Z,7.50
2022-11-24T14:07:44.059Z,7.40
2022-11-24T14:10:15.895Z,7.40
2022-11-24T14:12:43.820Z,7.40
2022-11-24T14:15:22.650Z,7.60
2022-11-24T14:17:49.565Z,7.30
2022-11-24T14:20:22.244Z,7.70
2022-11-24T14:22:49.213Z,7.40
2022-11-24T14:25:20.248Z,7.50
2022-11-24T14:28:27.041Z,7.30
2022-11-24T14:31:09.886Z,7.30
2022-11-24T14:33:36.905Z,7.40
2022-11-24T14:36:03.971Z,7.20
2022-11-24T14:38:30.995Z,7.30
2022-11-24T14:41:13.402Z,7.30
2022-11-24T14:43:40.481Z,7.30
2022-11-24T14:46:17.783Z,7.20
2022-11-24T14:48:49.663Z,7.70
2022-11-24T14:51:27.833Z,7.30
2022-11-24T14:53:59.781Z,7.30
2022-11-24T14:56:31.890Z,7.20
2022-11-24T14:58:59.269Z,7.20
2022-11-24T15:01:36.106Z,7.10
2022-11-24T15:04:26.532Z,7.40
2022-11-24T15:07:04.986Z,7.10
2022-11-24T15:09:40.579Z,7.80
2022-11-24T15:12:21.116Z,7.10
2022-11-24T15:14:50.329Z,7.10
2022-11-24T15:17:19.115Z,7.00
2022-11-24T15:19:48.327Z,7.10
2022-11-24T15:22:33.862Z,7.10
2022-11-24T15:25:45.376Z,7.20
2022-11-24T15:28:12.773Z,6.90
2022-11-24T15:30:40.255Z,6.80
2022-11-24T15:33:15.621Z,7.00
2022-11-24T15:35:42.861Z,6.80
2022-11-24T15:38:30.227Z,6.90
2022-11-24T15:41:01.783Z,6.80
2022-11-24T15:43:31.338Z,6.80
2022-11-24T15:45:58.702Z,6.70
2022-11-24T15:48:25.754Z,6.70
2022-11-24T15:50:53.104Z,6.70
2022-11-24T15:53:26.145Z,6.70
2022-11-24T15:59:46.319Z,8.50
2022-11-24T16:02:13.209Z,6.60
2022-11-24T16:04:41.792Z,6.40
2022-11-24T16:07:12.056Z,6.50
2022-11-24T16:09:38.994Z,6.30
2022-11-24T16:12:08.175Z,6.50
2022-11-24T16:14:35.997Z,6.10
2022-11-24T16:17:03.843Z,6.30
2022-11-24T16:19:30.995Z,6.00
2022-11-24T16:21:57.816Z,6.00
2022-11-24T16:24:24.631Z,5.90
2022-11-24T16:26:51.474Z,6.00
2022-11-24T16:29:20.939Z,5.80
2022-11-24T16:31:47.837Z,5.70
2022-11-24T16:34:15.189Z,5.60
2022-11-24T16:36:41.971Z,5.70
2022-11-24T16:39:08.862Z,5.50
2022-11-24T16:41:52.122Z,5.70
2022-11-24T16:44:21.126Z,5.40
2022-11-24T16:46:54.259Z,5.20
2022-11-24T16:49:21.100Z,5.30
2022-11-24T16:51:47.945Z,5.20
2022-11-24T16:54:16.425Z,5.10
2022-11-24T17:00:17.332Z,5.10
2022-11-24T17:02:44.319Z,5.00
2022-11-24T17:05:11.330Z,5.10
2022-11-24T17:07:38.262Z,4.90
2022-11-24T17:10:06.069Z,4.90
2022-11-24T17:12:34.787Z,4.80
2022-11-24T17:15:31.076Z,4.80
2022-11-24T17:18:26.571Z,4.70
2022-11-24T17:20:57.054Z,4.70
2022-11-24T17:23:23.939Z,5.00
2022-11-24T17:25:52.021Z,4.60
2022-11-24T17:28:22.002Z,4.90
2022-11-24T17:30:48.859Z,9.10
2022-11-24T17:33:15.819Z,4.50
2022-11-24T17:35:42.700Z,5.10
2022-11-24T17:38:09.636Z,2.90
2022-11-24T17:40:36.638Z,4.40
2022-11-24T17:43:03.562Z,4.40
2022-11-24T17:45:30.777Z,4.40
2022-11-24T17:48:01.141Z,4.40
2022-11-24T17:50:28.032Z,4.40
2022-11-24T17:52:54.900Z,4.40
2022-11-24T17:55:21.872Z,4.40
2022-11-24T17:57:48.906Z,4.20
2022-11-24T18:00:16.059Z,4.30
2022-11-24T18:02:42.962Z,4.20
2022-11-24T18:09:34.134Z,4.20
2022-11-24T18:12:00.915Z,4.30
2022-11-24T18:14:27.728Z,4.90
2022-11-24T18:16:54.541Z,4.30
2022-11-24T18:19:21.384Z,5.00
2022-11-24T18:21:48.172Z,4.30
2022-11-24T18:24:50.509Z,4.10
2022-11-24T18:27:17.369Z,4.00
2022-11-24T18:29:44.221Z,4.00
2022-11-24T18:32:11.103Z,3.90
2022-11-24T18:34:38.430Z,3.90
2022-11-24T18:37:05.386Z,3.80
2022-11-24T18:39:32.318Z,1.90
2022-11-24T18:41:59.407Z,3.90
2022-11-24T18:44:26.295Z,4.00
2022-11-24T18:46:53.712Z,3.90
2022-11-24T18:49:20.593Z,3.90
2022-11-24T18:51:48.083Z,3.90
2022-11-24T18:54:15.305Z,3.90
2022-11-24T18:56:42.132Z,3.80
2022-11-24T18:59:21.550Z,3.80
2022-11-24T19:01:48.527Z,3.70
2022-11-24T19:04:35.089Z,3.70
2022-11-24T19:07:37.526Z,3.60
2022-11-24T19:10:04.717Z,3.60
2022-11-24T19:12:46.048Z,3.30
2022-11-24T19:15:14.110Z,3.60
2022-11-24T19:17:41.196Z,3.60
2022-11-24T19:20:08.165Z,3.60
2022-11-24T19:22:35.011Z,3.60
2022-11-24T19:25:01.846Z,3.90
2022-11-24T19:27:29.730Z,3.70
2022-11-24T19:29:56.592Z,3.40
2022-11-24T19:32:23.668Z,3.40
2022-11-24T19:34:50.608Z,3.30
2022-11-24T19:37:17.558Z,3.40
2022-11-24T19:39:44.486Z,3.80
2022-11-24T19:42:11.354Z,3.20
2022-11-24T19:44:38.994Z,3.10
2022-11-24T19:47:05.895Z,3.00
2022-11-24T19:49:32.806Z,3.00
2022-11-24T19:56:09.161Z,4.10
2022-11-24T19:58:36.559Z,3.10
2022-11-24T20:01:10.702Z,0.70
2022-11-24T20:03:38.305Z,3.00
2022-11-24T20:06:05.712Z,3.20
2022-11-24T20:08:34.060Z,3.10
2022-11-24T20:11:24.687Z,3.20
2022-11-24T20:13:55.090Z,3.00
2022-11-24T20:16:26.471Z,3.10
2022-11-24T20:18:57.356Z,0.10
2022-11-24T20:21:25.692Z,3.10
2022-11-24T20:23:57.912Z,5.20
2022-11-24T20:26:26.109Z,3.00
2022-11-24T20:32:34.437Z,3.00
2022-11-24T20:35:01.768Z,2.90
2022-11-24T20:37:29.534Z,5.50
2022-11-24T20:39:58.864Z,3.10
2022-11-24T20:42:26.992Z,5.70
2022-11-24T20:44:54.564Z,2.90
2022-11-24T20:47:27.012Z,2.80
2022-11-24T20:49:53.817Z,2.90
2022-11-24T20:52:20.630Z,5.20
2022-11-24T20:54:47.574Z,3.00
2022-11-24T20:57:14.472Z,5.40
2022-11-24T21:00:04.808Z,3.10
2022-11-24T21:03:11.810Z,3.10
2022-11-24T21:09:31.972Z,3.00
2022-11-24T21:15:52.483Z,3.00
2022-11-24T21:19:01.136Z,3.10
2022-11-24T21:21:33.384Z,3.00
2022-11-24T21:24:00.790Z,3.10
2022-11-24T21:26:28.271Z,4.70
2022-11-24T21:28:56.108Z,3.20
2022-11-24T21:31:23.159Z,5.30
2022-11-24T21:33:51.110Z,3.30
2022-11-24T21:36:19.349Z,3.30
2022-11-24T21:38:53.623Z,5.00
2022-11-24T21:41:20.806Z,3.30
2022-11-24T21:43:47.882Z,3.40
2022-11-24T21:50:08.592Z,3.40
2022-11-24T21:52:35.423Z,3.40
2022-11-24T21:55:35.339Z,5.70
2022-11-24T21:58:05.607Z,3.10
2022-11-24T22:00:32.390Z,3.00
2022-11-24T22:07:00.154Z,2.90
2022-11-24T22:10:10.839Z,3.00
2022-11-24T22:16:37.450Z,2.80
2022-11-24T22:19:04.457Z,5.10
2022-11-24T22:21:33.498Z,2.80
2022-11-24T22:24:00.394Z,5.10
2022-11-24T22:26:28.135Z,3.30
2022-11-24T22:28:55.658Z,5.30
2022-11-24T22:31:23.943Z,3.50
2022-11-24T22:33:51.485Z,5.00
2022-11-24T22:36:20.839Z,2.70
2022-11-24T22:38:47.736Z,5.30
2022-11-24T22:45:08.586Z,2.50
2022-11-24T22:47:35.444Z,2.50
2022-11-24T22:50:02.318Z,2.50
2022-11-24T22:56:29.746Z,2.40
2022-11-24T22:58:57.488Z,2.50
2022-11-24T23:01:25.095Z,4.80
2022-11-24T23:03:54.543Z,2.50
2022-11-24T23:06:23.123Z,4.50
2022-11-24T23:08:50.446Z,3.20
2022-11-24T23:11:31.557Z,4.70
2022-11-24T23:14:02.803Z,2.20
2022-11-24T23:16:30.277Z,5.20
2022-11-24T23:18:57.233Z,2.40
2022-11-24T23:21:25.277Z,6.40
2022-11-24T23:23:52.541Z,2.50
2022-11-24T23:26:30.490Z,6.70
2022-11-24T23:28:57.370Z,2.20
2022-11-24T23:31:28.790Z,5.10
2022-11-24T23:33:57.078Z,1.90
2022-11-24T23:36:23.939Z,4.40
2022-11-24T23:38:51.047Z,1.90
2022-11-24T23:41:19.016Z,6.70
2022-11-24T23:43:46.274Z,2.70
2022-11-24T23:46:15.030Z,6.30
2022-11-24T23:48:42.028Z,2.40
2022-11-24T23:51:15.085Z,4.20
2022-11-24T23:53:42.376Z,1.90
2022-11-24T23:56:13.913Z,4.20
2022-11-24T23:58:41.136Z,1.90
